Time;durP1;ratioP1;P1;durP2;ratioP2;P2;SDS_P1;SDS_P2;PMS_P1;PMS_P2;Temp;Humidity;BMP_temperature;BMP_pressure;BME280_temperature;BME280_humidity;BME280_pressure;Samples;Min_cycle;Max_cycle;Signal;HPM_P1;HPM_P2
2023/05/21 07:01:44;;;;;;;1.15;1.15;;;19.90;99.90;22.80;101626.00;;;;6308193;22;20567;-72
2023/05/21 07:04:46;;;;;;;1.60;1.08;;;19.70;99.90;21.40;101684.00;;;;6280993;22;20219;-73
2023/05/21 07:07:18;;;;;;;0.70;0.70;;;19.40;99.90;22.00;101670.00;;;;6285798;22;20136;-73
2023/05/21 07:10:07;;;;;;;6.93;4.78;;;19.50;99.90;23.30;101670.00;;;;6282634;22;20147;-71
2023/05/21 07:12:35;;;;;;;1.30;1.17;;;20.10;99.90;23.60;101686.00;;;;6257272;22;20156;-74
2023/05/21 07:15:37;;;;;;;1.23;1.17;;;20.30;99.90;21.50;101686.00;;;;6308067;22;20140;-73
2023/05/21 07:18:05;;;;;;;0.15;0.15;;;19.60;99.90;22.50;101670.00;;;;6256468;22;20239;-70
2023/05/21 07:20:31;;;;;;;0.22;0.22;;;19.40;99.90;24.10;101683.00;;;;6308503;22;20163;-73
2023/05/21 07:22:57;;;;;;;0.98;0.98;;;20.20;99.90;24.20;101692.00;;;;6281156;22;20175;-74
2023/05/21 07:25:24;;;;;;;1.35;0.80;;;20.70;99.90;23.40;101700.00;;;;6280830;22;20487;-73
2023/05/21 07:28:31;;;;;;;0.43;0.43;;;20.70;99.90;22.30;101697.00;;;;6281885;22;20148;-73
2023/05/21 07:31:22;;;;;;;1.38;1.27;;;20.00;99.90;21.90;101666.00;;;;6259448;22;20167;-73
2023/05/21 07:33:51;;;;;;;0.65;0.50;;;19.80;99.90;21.10;101642.00;;;;6281601;22;20149;-73
2023/05/21 07:36:37;;;;;;;0.10;0.10;;;19.50;99.90;23.10;101661.00;;;;6256266;22;20608;-73
2023/05/21 07:39:03;;;;;;;0.30;0.30;;;19.90;99.90;25.40;101671.00;;;;6256295;22;20212;-73
2023/05/21 07:42:12;;;;;;;0.10;0.10;;;21.20;99.90;24.10;101717.00;;;;6281557;22;20183;-73
2023/05/21 07:44:56;;;;;;;0.20;0.20;;;21.40;99.90;26.50;101694.00;;;;6257536;22;20156;-73
2023/05/21 07:47:57;;;;;;;2.13;1.95;;;22.30;99.90;26.00;101690.00;;;;6281805;22;20155;-74
2023/05/21 07:51:08;;;;;;;1.58;1.48;;;23.00;99.90;24.80;101703.00;;;;6248102;22;20216;-73
2023/05/21 07:54:18;;;;;;;2.40;1.50;;;22.70;99.90;24.40;101723.00;;;;6282408;22;20159;-73
2023/05/21 07:57:45;;;;;;;2.88;1.77;;;22.10;99.90;24.00;101741.00;;;;6282232;22;20159;-74
2023/05/21 08:01:03;;;;;;;2.13;1.42;;;21.30;99.90;24.10;101680.00;;;;6263561;22;20199;-74
2023/05/21 08:04:05;;;;;;;0.52;0.52;;;22.20;99.90;24.10;101729.00;;;;6250451;22;20623;-74
2023/05/21 08:07:09;;;;;;;0.38;0.38;;;21.50;99.90;26.60;101668.00;;;;6225311;22;20210;-74
2023/05/21 08:10:15;;;;;;;0.80;0.80;;;22.50;99.90;26.00;101706.00;;;;6225489;22;20542;-74
2023/05/21 08:13:26;;;;;;;1.60;1.10;;;22.90;99.90;23.40;101730.00;;;;6221750;22;20250;-74
2023/05/21 08:16:47;;;;;;;0.77;0.77;;;21.90;99.90;22.60;101740.00;;;;6225858;22;20187;-74
2023/05/21 08:19:50;;;;;;;1.95;1.35;;;20.80;99.90;22.90;101709.00;;;;6250846;22;20164;-73
2023/05/21 08:23:01;;;;;;;0.75;0.47;;;20.40;99.90;23.50;101702.00;;;;6225470;22;20176;-74
2023/05/21 08:26:05;;;;;;;0.43;0.43;;;20.40;99.90;23.70;101688.00;;;;6225803;22;20188;-74
2023/05/21 08:29:06;;;;;;;2.17;1.75;;;20.90;99.90;25.90;101653.00;;;;6277333;22;20239;-74
2023/05/21 08:31:53;;;;;;;1.92;1.48;;;22.30;99.90;24.10;101715.00;;;;6224944;22;20153;-74
2023/05/21 08:34:59;;;;;;;0.52;0.52;;;22.20;99.90;25.70;101691.00;;;;6225407;22;20168;-74
2023/05/21 08:41:36;;;;;;;0.45;0.45;;;22.60;99.90;27.00;101678.00;;;;6255682;22;20491;-74
2023/05/21 08:44:25;;;;;;;2.03;1.30;;;23.30;99.90;25.60;101645.00;;;;6225291;22;20156;-74
2023/05/21 08:47:21;;;;;;;0.38;0.38;;;23.60;99.90;23.60;101720.00;;;;6225146;22;20524;-74
2023/05/21 08:50:32;;;;;;;0.57;0.57;;;22.10;99.90;25.90;101709.00;;;;6225419;22;20157;-74
2023/05/21 08:53:44;;;;;;;2.30;1.70;;;22.50;99.90;24.40;101719.00;;;;6228395;22;20161;-73
2023/05/21 08:56:50;;;;;;;2.17;1.20;;;22.60;99.90;24.50;101717.00;;;;6225510;22;20633;-73
2023/05/21 08:59:51;;;;;;;1.85;1.75;;;22.70;99.90;24.30;101722.00;;;;6256550;22;20164;-73
2023/05/21 09:02:53;;;;;;;5.55;2.13;;;22.00;99.90;26.20;101697.00;;;;6280757;22;20182;-73
2023/05/21 09:05:50;;;;;;;1.65;0.25;;;22.70;99.90;26.80;101682.00;;;;6255481;22;20156;-73
2023/05/21 09:09:17;;;;;;;2.33;1.08;;;23.60;99.90;26.80;101668.00;;;;6282021;22;20140;-74
2023/05/21 09:12:09;;;;;;;3.15;2.05;;;24.10;99.90;23.90;101719.00;;;;6307510;22;20160;-73
2023/05/21 09:15:20;;;;;;;2.97;0.93;;;22.30;99.90;24.40;101708.00;;;;6258761;22;20149;-74
2023/05/21 09:18:26;;;;;;;2.38;0.88;;;21.90;99.90;24.50;101714.00;;;;6254953;22;20239;-74
2023/05/21 09:21:44;;;;;;;2.30;2.10;;;22.20;99.90;24.30;101706.00;;;;6255733;22;20199;-74
2023/05/21 09:24:56;;;;;;;1.33;1.23;;;21.90;99.90;25.40;101698.00;;;;6241621;22;20294;-74
2023/05/21 09:28:21;;;;;;;1.25;1.13;;;22.10;99.90;26.40;101673.00;;;;6280444;22;20572;-73
2023/05/21 09:31:40;;;;;;;2.92;1.52;;;22.60;99.90;26.10;101687.00;;;;6265423;22;20257;-74
2023/05/21 09:34:44;;;;;;;0.10;0.10;;;22.50;99.90;25.50;101699.00;;;;6255234;22;20156;-74
2023/05/21 09:37:53;;;;;;;0.70;0.70;;;22.90;99.90;25.30;101686.00;;;;6280488;22;20156;-73
2023/05/21 09:41:14;;;;;;;1.90;1.38;;;22.60;99.90;27.10;101676.00;;;;6263443;22;20171;-74
2023/05/21 09:44:41;;;;;;;0.82;0.82;;;23.40;99.90;26.30;101675.00;;;;6279976;22;20186;-74
2023/05/21 09:47:51;;;;;;;1.10;1.10;;;24.00;99.90;26.10;101670.00;;;;6280290;22;20152;-74
2023/05/21 09:51:07;;;;;;;1.65;1.55;;;23.40;99.90;25.60;101689.00;;;;6255404;22;20170;-73
2023/05/21 09:54:46;;;;;;;1.17;1.15;;;23.80;99.90;26.00;101675.00;;;;6255101;22;20157;-73
2023/05/21 09:57:59;;;;;;;0.32;0.32;;;22.90;99.90;26.50;101681.00;;;;6280331;22;20160;-74
2023/05/21 10:01:09;;;;;;;1.13;0.95;;;23.80;99.90;25.80;101687.00;;;;6260039;22;20500;-74
2023/05/21 10:04:09;;;;;;;0.55;0.55;;;23.40;99.90;27.50;101663.00;;;;6249199;22;20181;-74
2023/05/21 10:07:15;;;;;;;3.78;2.97;;;23.80;99.90;25.90;101642.00;;;;6249458;22;20138;-75
2023/05/21 10:10:21;;;;;;;3.42;0.90;;;24.00;99.90;27.80;101637.00;;;;6249776;22;20155;-74
2023/05/21 10:13:30;;;;;;;3.45;3.00;;;24.30;99.90;25.60;101671.00;;;;6224079;22;20251;-74
2023/05/21 10:16:53;;;;;;;1.63;1.48;;;23.90;99.90;25.30;101673.00;;;;6202328;22;20163;-74
2023/05/21 10:19:55;;;;;;;2.53;2.33;;;23.10;99.90;24.50;101683.00;;;;6224092;22;20163;-74
2023/05/21 10:34:21;;;;;;;3.05;1.70;;;23.30;99.90;26.20;101575.00;;;;5110482;27;20584;-73
2023/05/21 10:37:27;;;;;;;0.20;0.20;;;23.10;99.90;26.90;101599.00;;;;5105895;28;20193;-74
2023/05/21 10:40:43;;;;;;;2.05;1.73;;;24.20;99.90;26.50;101587.00;;;;5089498;28;20199;-73
2023/05/21 10:43:42;;;;;;;1.52;1.40;;;24.00;99.90;26.90;101608.00;;;;5089777;28;20246;-73
2023/05/21 10:46:59;;;;;;;1.73;1.63;;;24.40;99.90;27.50;101595.00;;;;5085310;28;20200;-73
2023/05/21 10:49:58;;;;;;;0.70;0.50;;;24.50;99.90;29.00;101572.00;;;;4992100;28;20191;-73
2023/05/21 10:56:23;;;;;;;2.50;2.30;;;24.70;99.90;26.50;101604.00;;;;4949759;29;20634;-73
2023/05/21 10:59:28;;;;;;;2.10;1.55;;;24.80;99.90;25.50;101618.00;;;;4937657;29;20683;-73
2023/05/21 11:02:55;;;;;;;4.68;3.10;;;23.50;99.90;25.60;101616.00;;;;4942669;29;20205;-73
2023/05/21 11:06:29;;;;;;;3.83;2.70;;;23.20;99.90;24.40;101626.00;;;;4921574;29;20645;-73
2023/05/21 11:09:51;;;;;;;0.73;0.73;;;22.60;99.90;24.60;101579.00;;;;4874596;29;20195;-73
2023/05/21 11:13:49;;;;;;;2.38;2.17;;;22.20;99.90;25.90;101587.00;;;;4895402;29;20225;-73
2023/05/21 11:16:55;;;;;;;3.88;2.58;;;22.70;99.90;26.10;101577.00;;;;4855501;29;20207;-73
2023/05/21 11:20:12;;;;;;;35.15;2.17;;;23.30;99.90;27.30;101545.00;;;;4895789;29;20361;-74
2023/05/21 11:23:20;;;;;;;3.75;2.88;;;23.70;99.90;25.80;101585.00;;;;4895878;29;20417;-73
2023/05/21 11:27:05;;;;;;;1.90;1.77;;;24.00;99.90;25.50;101601.00;;;;4887423;28;20200;-73
2023/05/21 11:30:15;;;;;;;1.95;1.67;;;22.90;99.90;24.90;101603.00;;;;4996274;28;20226;-73
2023/05/21 11:33:06;;;;;;;5.07;1.85;;;22.30;99.90;25.00;101602.00;;;;5038655;28;20316;-73
2023/05/21 11:36:28;;;;;;;0.68;0.68;;;22.40;99.90;24.70;101608.00;;;;5089414;28;20191;-73
2023/05/21 11:39:51;;;;;;;0.85;0.85;;;22.30;99.90;24.50;101594.00;;;;5087720;28;20216;-73
2023/05/21 11:45:45;;;;;;;1.90;1.13;;;21.90;99.90;25.60;101577.00;;;;5076123;28;20280;-73
2023/05/21 11:48:52;;;;;;;0.30;0.30;;;22.30;99.90;25.60;101584.00;;;;5052002;28;20235;-73
2023/05/21 11:51:56;;;;;;;3.17;1.58;;;22.30;99.90;25.10;101573.00;;;;5042963;28;20217;-73
2023/05/21 11:54:54;;;;;;;4.35;1.92;;;22.30;99.90;24.50;101567.00;;;;5057331;28;20231;-73
2023/05/21 11:58:02;;;;;;;4.85;3.03;;;22.00;99.90;23.90;101560.00;;;;5075486;28;20247;-73
2023/05/21 12:01:11;;;;;;;2.10;1.33;;;21.90;99.90;24.50;101544.00;;;;5070018;28;20192;-73
2023/05/21 12:04:05;;;;;;;4.57;3.97;;;21.90;99.90;23.90;101502.00;;;;5072984;28;20228;-73
2023/05/21 12:07:33;;;;;;;1.73;1.63;;;21.80;99.90;25.50;101499.00;;;;5057541;28;20193;-73
2023/05/21 12:11:00;;;;;;;1.80;1.52;;;22.10;99.90;24.80;101543.00;;;;5073991;28;20189;-73
2023/05/21 12:14:03;;;;;;;2.90;2.58;;;22.30;99.90;24.20;101496.00;;;;5070482;28;20555;-73
2023/05/21 12:17:09;;;;;;;1.30;0.73;;;22.20;99.90;25.40;101550.00;;;;5073775;28;20530;-73
2023/05/21 12:20:22;;;;;;;4.07;2.85;;;22.20;99.90;25.00;101567.00;;;;5073649;28;20177;-73
2023/05/21 12:23:26;;;;;;;0.20;0.20;;;22.50;99.90;26.00;101546.00;;;;5072208;28;20531;-73
2023/05/21 12:26:50;;;;;;;2.70;1.52;;;22.50;99.90;26.50;101563.00;;;;5060638;28;20237;-74
2023/05/21 12:29:57;;;;;;;2.08;1.33;;;23.30;99.90;25.00;101528.00;;;;5074856;28;20188;-73
2023/05/21 12:33:04;;;;;;;2.03;1.85;;;22.80;99.90;24.40;101531.00;;;;5073047;28;20752;-73
2023/05/21 12:36:18;;;;;;;1.70;1.60;;;22.40;99.90;24.80;101551.00;;;;5074850;28;20231;-73
2023/05/21 12:39:30;;;;;;;1.27;0.98;;;22.40;99.90;26.00;101569.00;;;;5071172;28;20186;-74
2023/05/21 12:42:26;;;;;;;1.45;1.35;;;22.80;99.90;25.60;101541.00;;;;5072950;28;20246;-73
2023/05/21 12:45:29;;;;;;;1.95;1.48;;;22.90;99.90;24.80;101584.00;;;;5072040;28;20265;-73
2023/05/21 12:48:23;;;;;;;1.02;1.02;;;22.70;99.90;25.90;101555.00;;;;5073633;28;20201;-73
2023/05/21 12:51:41;;;;;;;2.05;1.55;;;22.60;99.90;25.80;101577.00;;;;5054595;28;20654;-73
2023/05/21 12:55:13;;;;;;;2.92;1.88;;;22.90;99.90;25.60;101558.00;;;;5057519;28;20187;-73
2023/05/21 12:58:23;;;;;;;4.03;2.92;;;22.60;99.90;26.70;101556.00;;;;5070143;28;20189;-73
2023/05/21 13:01:29;;;;;;;1.90;1.80;;;23.10;99.90;25.70;101559.00;;;;5083716;28;20280;-73
2023/05/21 13:04:42;;;;;;;2.90;1.25;;;22.90;99.90;25.20;101560.00;;;;5073261;28;20189;-73
2023/05/21 13:07:51;;;;;;;3.47;2.30;;;22.80;99.90;26.50;101549.00;;;;5062111;28;20761;-73
2023/05/21 13:11:00;;;;;;;1.25;1.05;;;22.90;99.90;26.20;101553.00;;;;5062979;28;20193;-73
2023/05/21 13:14:20;;;;;;;2.42;1.80;;;22.90;99.90;25.80;101558.00;;;;5060824;28;20559;-73
2023/05/21 13:17:37;;;;;;;3.15;2.22;;;23.30;99.90;25.50;101552.00;;;;5072239;28;20632;-73
2023/05/21 13:23:30;;;;;;;2.55;1.95;;;22.60;99.90;24.90;101501.00;;;;5061273;28;20201;-73
2023/05/21 13:26:51;;;;;;;10.43;5.53;;;22.40;99.90;25.40;101541.00;;;;5054580;28;20197;-73
2023/05/21 13:29:44;;;;;;;1.05;1.05;;;22.70;99.90;25.70;101529.00;;;;5053525;28;20224;-73
2023/05/21 13:32:46;;;;;;;0.73;0.73;;;22.70;99.90;25.70;101526.00;;;;5062023;28;20201;-73
2023/05/21 13:36:04;;;;;;;4.70;4.18;;;22.70;99.90;25.40;101530.00;;;;5055470;28;20646;-73
2023/05/21 13:39:26;;;;;;;1.40;1.30;;;22.80;99.90;26.10;101522.00;;;;5067274;28;20182;-73
2023/05/21 13:42:30;;;;;;;0.95;0.95;;;23.00;99.90;26.50;101487.00;;;;5072536;28;20303;-73
2023/05/21 13:45:35;;;;;;;2.05;1.85;;;23.30;99.90;25.50;101525.00;;;;5060695;28;20222;-73
2023/05/21 13:48:59;;;;;;;0.98;0.98;;;23.10;99.90;25.40;101518.00;;;;5070096;28;20193;-73
2023/05/21 13:52:18;;;;;;;7.50;3.33;;;22.70;99.90;25.70;101481.00;;;;5074333;28;20208;-73
2023/05/21 13:55:40;;;;;;;3.53;2.72;;;22.80;99.90;25.60;101510.00;;;;5072320;28;20242;-73
2023/05/21 13:59:04;;;;;;;2.95;2.75;;;22.60;99.90;25.40;101510.00;;;;5070619;28;20169;-73
2023/05/21 14:02:13;;;;;;;4.10;3.60;;;22.80;99.90;25.30;101494.00;;;;5074365;28;20271;-73
2023/05/21 14:08:49;;;;;;;3.95;2.42;;;22.80;99.90;25.30;101505.00;;;;5065700;28;20607;-73
2023/05/21 14:11:42;;;;;;;2.95;2.13;;;22.80;99.90;25.80;101512.00;;;;5072083;28;20185;-73
2023/05/21 14:14:43;;;;;;;5.10;2.50;;;23.10;99.90;26.00;101511.00;;;;5064151;28;20247;-73
2023/05/21 14:17:54;;;;;;;0.80;0.65;;;22.90;99.90;26.70;101521.00;;;;5087145;28;20219;-73
2023/05/21 14:27:55;;;;;;;1.60;1.23;;;23.00;99.90;26.60;101511.00;;;;5072097;28;20193;-73
2023/05/21 14:34:10;;;;;;;1.13;1.10;;;23.40;99.90;26.60;101524.00;;;;5068397;28;20193;-73
2023/05/21 14:37:31;;;;;;;4.95;3.15;;;23.60;99.90;26.30;101537.00;;;;5066663;28;20189;-73
2023/05/21 14:40:53;;;;;;;2.22;2.08;;;23.40;99.90;25.80;101526.00;;;;5066262;28;20208;-73
2023/05/21 14:43:57;;;;;;;2.55;1.17;;;23.20;99.90;25.90;101486.00;;;;5051052;28;20250;-73
2023/05/21 14:47:03;;;;;;;0.35;0.35;;;23.10;99.90;26.80;101513.00;;;;5067040;28;20643;-73
2023/05/21 14:50:10;;;;;;;2.83;1.52;;;23.10;99.90;27.00;101520.00;;;;5072118;28;20191;-73
2023/05/21 14:53:00;;;;;;;1.30;1.13;;;23.40;99.90;27.50;101531.00;;;;5063217;28;20216;-74
2023/05/21 14:56:23;;;;;;;1.30;1.17;;;23.90;99.90;26.00;101547.00;;;;5071340;28;20185;-73
2023/05/21 14:59:27;;;;;;;0.45;0.45;;;23.70;99.90;26.90;101538.00;;;;5060066;28;20644;-73
2023/05/21 15:02:13;;;;;;;1.38;1.20;;;23.60;99.90;27.10;101546.00;;;;5068530;28;20666;-73
2023/05/21 15:04:59;;;;;;;6.18;1.30;;;23.60;99.90;26.30;101499.00;;;;5071230;28;20264;-73
2023/05/21 15:08:08;;;;;;;1.13;1.08;;;23.40;99.90;27.00;101537.00;;;;5070968;28;20189;-73
2023/05/21 15:11:20;;;;;;;0.10;0.10;;;23.40;99.90;27.10;101499.00;;;;5064211;28;20188;-73
2023/05/21 15:18:18;;;;;;;0.60;0.60;;;23.50;99.90;25.70;101537.00;;;;5066893;28;20656;-73
2023/05/21 15:21:22;;;;;;;0.90;0.85;;;23.10;99.90;26.10;101527.00;;;;5081203;28;20186;-73
2023/05/21 15:24:33;;;;;;;1.65;1.55;;;22.70;99.90;25.10;101524.00;;;;5074859;28;20255;-73
2023/05/21 15:27:25;;;;;;;0.68;0.68;;;22.30;99.90;25.70;101524.00;;;;5074599;28;20185;-73
2023/05/21 15:30:43;;;;;;;4.50;1.75;;;22.40;99.90;26.00;101528.00;;;;5064892;28;20255;-73
2023/05/21 15:33:47;;;;;;;1.52;1.42;;;22.60;99.90;25.30;101506.00;;;;5057892;28;20216;-73
2023/05/21 15:36:41;;;;;;;1.52;1.38;;;22.30;99.90;25.10;101513.00;;;;5074619;28;20192;-73
2023/05/21 15:39:29;;;;;;;10.43;1.48;;;22.40;99.90;25.30;101496.00;;;;5070091;28;20185;-73
2023/05/21 15:42:55;;;;;;;0.40;0.40;;;22.30;99.90;25.20;101522.00;;;;5074795;28;20251;-73
2023/05/21 15:46:01;;;;;;;0.93;0.90;;;22.50;99.90;25.70;101493.00;;;;5080428;28;20186;-73
2023/05/21 15:49:23;;;;;;;20.52;1.63;;;22.30;99.90;24.50;101445.00;;;;5062118;28;20257;-73
2023/05/21 15:56:23;;;;;;;1.35;1.35;;;22.10;99.90;25.80;101492.00;;;;5076268;28;20204;-73
2023/05/21 15:59:29;;;;;;;1.98;1.65;;;22.20;99.90;25.20;101485.00;;;;5074553;28;20173;-73
2023/05/21 16:02:43;;;;;;;0.57;0.57;;;22.20;99.90;24.90;101473.00;;;;5074063;28;20219;-73
2023/05/21 16:06:05;;;;;;;1.27;1.17;;;22.00;99.90;25.30;101459.00;;;;5063876;28;20209;-73
2023/05/21 16:09:09;;;;;;;0.82;0.70;;;22.00;99.90;25.10;101472.00;;;;5069788;28;20705;-73
2023/05/21 16:12:07;;;;;;;0.50;0.50;;;22.10;99.90;25.60;101436.00;;;;5074034;28;20212;-73
2023/05/21 16:15:12;;;;;;;4.07;3.83;;;22.10;99.90;25.00;101475.00;;;;5057470;28;20205;-73
2023/05/21 16:18:21;;;;;;;5.47;2.70;;;22.10;99.90;24.40;101459.00;;;;5073346;28;20231;-73
2023/05/21 16:21:34;;;;;;;2.20;2.00;;;21.80;99.90;24.00;101442.00;;;;5052569;28;20655;-73
2023/05/21 16:24:43;;;;;;;1.20;1.20;;;21.50;99.90;23.80;101448.00;;;;5057196;28;20193;-73
2023/05/21 16:27:56;;;;;;;0.63;0.38;;;21.30;99.90;24.60;101456.00;;;;5069515;28;20691;-73
2023/05/21 16:31:01;;;;;;;0.30;0.30;;;21.30;99.90;24.50;101459.00;;;;5069736;28;20182;-73
2023/05/21 16:34:28;;;;;;;2.97;2.17;;;21.70;99.90;24.40;101470.00;;;;5060832;28;20224;-73
2023/05/21 16:37:46;;;;;;;0.65;0.65;;;21.60;99.90;24.40;101481.00;;;;5066422;28;20765;-73
2023/05/21 16:44:19;;;;;;;0.10;0.10;;;21.70;99.90;24.10;101477.00;;;;5067805;28;20198;-73
2023/05/21 16:47:12;;;;;;;1.23;0.80;;;21.50;99.90;24.00;101471.00;;;;5061170;28;20189;-72
2023/05/21 16:50:23;;;;;;;1.13;1.02;;;21.30;99.90;24.00;101462.00;;;;5064727;28;20246;-72
2023/05/21 16:53:33;;;;;;;0.43;0.43;;;21.30;99.90;24.40;101463.00;;;;5061251;28;20227;-73
2023/05/21 16:56:29;;;;;;;0.95;0.93;;;21.40;99.90;24.60;101472.00;;;;5061304;28;20675;-73
2023/05/21 16:59:41;;;;;;;0.13;0.13;;;21.40;99.90;24.50;101456.00;;;;5066638;28;21166;-73
2023/05/21 17:02:34;;;;;;;1.15;1.15;;;21.30;99.90;23.80;101447.00;;;;5052769;28;20197;-73
2023/05/21 17:05:35;;;;;;;0.57;0.52;;;21.10;99.90;24.10;101453.00;;;;5072345;28;20221;-73
2023/05/21 17:08:47;;;;;;;1.27;1.15;;;21.10;99.90;23.70;101446.00;;;;5069502;28;20281;-73
2023/05/21 17:11:30;;;;;;;1.15;0.63;;;21.10;99.90;24.30;101455.00;;;;5038545;28;20198;-73
2023/05/21 17:14:31;;;;;;;1.15;1.08;;;21.20;99.90;23.90;101445.00;;;;5072361;28;20191;-72
2023/05/21 17:17:08;;;;;;;0.82;0.82;;;21.10;99.90;23.70;101425.00;;;;5081054;28;20561;-72
2023/05/21 17:19:44;;;;;;;4.07;2.20;;;21.00;99.90;23.50;101449.00;;;;5071852;28;20181;-73
2023/05/21 17:22:41;;;;;;;0.40;0.40;;;20.80;99.90;23.40;101443.00;;;;5072690;28;20193;-72
2023/05/21 17:25:51;;;;;;;0.85;0.45;;;20.50;99.90;24.30;101445.00;;;;5068908;28;20177;-72
2023/05/21 17:32:04;;;;;;;1.27;1.13;;;21.00;99.90;24.30;101458.00;;;;5072597;28;20225;-72
2023/05/21 17:34:51;;;;;;;0.40;0.40;;;21.00;99.90;24.10;101477.00;;;;5045489;28;20201;-73
2023/05/21 17:38:00;;;;;;;0.45;0.45;;;21.10;99.90;23.80;101459.00;;;;5043246;28;20182;-73
2023/05/21 17:40:55;;;;;;;2.38;1.15;;;20.90;99.90;23.80;101467.00;;;;5055352;28;20186;-72
2023/05/21 17:44:15;;;;;;;0.88;0.60;;;20.90;99.90;23.70;101466.00;;;;5072286;28;20569;-72
2023/05/21 17:47:24;;;;;;;1.90;1.80;;;20.70;99.90;23.70;101456.00;;;;5055463;28;20536;-73
2023/05/21 17:50:34;;;;;;;0.40;0.40;;;20.50;99.90;22.90;101446.00;;;;5050177;28;20186;-73
2023/05/21 17:53:56;;;;;;;1.88;1.77;;;20.40;99.90;22.60;101388.00;;;;5071966;28;20698;-72
2023/05/21 17:57:17;;;;;;;2.13;2.00;;;20.10;99.90;22.60;101429.00;;;;5069169;28;20186;-72
2023/05/21 18:00:38;;;;;;;0.10;0.10;;;19.90;99.90;23.40;101457.00;;;;5063947;28;20630;-73
2023/05/21 18:03:49;;;;;;;0.28;0.28;;;20.00;99.90;23.40;101452.00;;;;5067286;28;20286;-73
2023/05/21 18:06:57;;;;;;;0.60;0.60;;;20.20;99.90;23.00;101435.00;;;;5051389;28;20181;-72
2023/05/21 18:09:48;;;;;;;0.90;0.73;;;20.00;99.90;23.50;101450.00;;;;5067928;28;20180;-72
2023/05/21 18:16:19;;;;;;;3.00;1.65;;;20.10;99.90;22.70;101444.00;;;;5066675;28;20571;-72
2023/05/21 18:19:27;;;;;;;1.33;1.20;;;20.00;99.90;22.20;101395.00;;;;5071075;28;20204;-72
2023/05/21 18:22:31;;;;;;;0.30;0.30;;;19.60;99.90;22.50;101431.00;;;;5088783;28;20276;-73
2023/05/21 18:28:40;;;;;;;0.38;0.38;;;19.60;99.90;22.50;101435.00;;;;5071714;28;20663;-72
2023/05/21 18:31:48;;;;;;;0.40;0.40;;;19.50;99.90;22.30;101447.00;;;;5071602;28;20540;-72
2023/05/21 18:34:49;;;;;;;0.73;0.73;;;19.50;99.90;22.70;101444.00;;;;5066800;28;20642;-72
2023/05/21 18:37:55;;;;;;;1.17;0.93;;;19.50;99.90;22.30;101449.00;;;;5071544;28;20730;-73
2023/05/21 18:40:58;;;;;;;0.20;0.20;;;19.40;99.90;22.30;101429.00;;;;5071893;28;20191;-72
2023/05/21 18:44:05;;;;;;;0.50;0.37;;;19.20;99.90;22.20;101433.00;;;;5062686;28;20188;-72
2023/05/21 18:47:11;;;;;;;0.90;0.90;;;19.30;99.90;22.20;101436.00;;;;5064227;28;20322;-72
2023/05/21 18:50:19;;;;;;;1.60;0.83;;;19.30;99.90;21.70;101409.00;;;;5083231;28;20199;-72
2023/05/21 18:53:25;;;;;;;1.90;1.33;;;19.10;99.90;21.90;101438.00;;;;5062631;28;20659;-72
2023/05/21 18:56:36;;;;;;;0.60;0.60;;;18.80;99.90;21.50;101439.00;;;;5075101;28;20195;-72
2023/05/21 18:59:30;;;;;;;4.77;3.17;;;18.90;99.90;21.80;101438.00;;;;5075094;28;20205;-73
2023/05/21 19:02:35;;;;;;;0.73;0.73;;;18.90;99.90;21.50;101436.00;;;;5075577;28;20218;-72
2023/05/21 19:05:26;;;;;;;0.43;0.43;;;18.80;99.90;21.80;101438.00;;;;5068576;28;20607;-72
2023/05/21 19:08:32;;;;;;;0.60;0.60;;;18.60;99.90;21.20;101419.00;;;;5070865;28;20220;-72
2023/05/21 19:11:39;;;;;;;0.30;0.30;;;18.30;99.90;21.30;101442.00;;;;5058883;28;20259;-72
2023/05/21 19:14:33;;;;;;;0.23;0.23;;;18.40;99.90;21.40;101457.00;;;;5068421;28;20189;-72
2023/05/21 19:17:39;;;;;;;2.30;0.40;;;18.40;99.90;21.20;101455.00;;;;5075068;28;20183;-72
2023/05/21 19:24:11;;;;;;;0.60;0.60;;;18.10;99.90;20.40;101450.00;;;;5064467;28;20211;-72
2023/05/21 19:27:02;;;;;;;4.57;1.70;;;17.90;99.90;20.30;101460.00;;;;5077132;28;20265;-72
2023/05/21 19:30:03;;;;;;;1.23;1.03;;;17.60;99.90;20.00;101466.00;;;;5066781;28;20675;-72
2023/05/21 19:33:07;;;;;;;0.20;0.20;;;17.50;99.90;20.80;101467.00;;;;5067115;28;20557;-72
2023/05/21 19:36:11;;;;;;;0.53;0.53;;;17.60;99.90;20.30;101462.00;;;;5041080;28;20209;-72
2023/05/21 19:39:18;;;;;;;1.20;1.20;;;17.50;99.90;20.50;101452.00;;;;5047792;28;20198;-72
2023/05/21 19:42:09;;;;;;;0.37;0.37;;;17.40;99.90;19.80;101462.00;;;;5074587;28;20189;-72
2023/05/21 19:45:08;;;;;;;0.93;0.93;;;17.30;99.90;20.30;101460.00;;;;5074417;28;20188;-72
2023/05/21 19:48:15;;;;;;;0.13;0.13;;;17.20;99.90;20.60;101465.00;;;;5062880;28;20193;-72
2023/05/21 19:51:27;;;;;;;0.30;0.30;;;17.30;99.90;20.00;101449.00;;;;5067309;28;20280;-70
2023/05/21 19:54:33;;;;;;;0.30;0.30;;;17.20;99.90;20.90;101470.00;;;;5069595;28;20192;-71
2023/05/21 19:57:34;;;;;;;0.60;0.60;;;17.40;99.90;20.10;101394.00;;;;5069933;28;20183;-71
2023/05/21 20:00:45;;;;;;;1.13;1.13;;;17.20;99.90;19.80;101420.00;;;;5074618;28;20192;-71
2023/05/21 20:03:57;;;;;;;20.60;1.60;;;17.20;99.90;20.60;101461.00;;;;5062143;28;20193;-71
2023/05/21 20:07:01;;;;;;;0.33;0.33;;;17.00;99.90;20.00;101469.00;;;;5074325;28;20552;-71
2023/05/21 20:09:55;;;;;;;0.70;0.70;;;17.00;99.90;20.10;101444.00;;;;5062986;28;20187;-71
2023/05/21 20:12:43;;;;;;;0.27;0.27;;;17.20;99.90;20.10;101459.00;;;;5057912;28;20221;-71
2023/05/21 20:15:46;;;;;;;1.07;1.07;;;17.10;99.90;20.60;101473.00;;;;5074026;28;20201;-71
2023/05/21 20:19:09;;;;;;;3.17;2.10;;;17.10;99.90;19.60;101413.00;;;;5073406;28;20549;-71
2023/05/21 20:21:58;;;;;;;0.20;0.20;;;17.00;99.90;19.90;101467.00;;;;5056933;28;20563;-71
2023/05/21 20:25:02;;;;;;;0.23;0.23;;;16.80;99.90;19.60;101457.00;;;;5074990;28;20666;-71
2023/05/21 20:27:48;;;;;;;0.30;0.30;;;16.70;99.90;19.90;101467.00;;;;5074102;28;20214;-71
2023/05/21 20:30:34;;;;;;;0.80;0.80;;;16.70;99.90;20.00;101423.00;;;;5073860;28;20230;-71
2023/05/21 20:33:40;;;;;;;1.23;1.17;;;16.70;99.90;19.80;101455.00;;;;5059761;28;20227;-71
2023/05/21 20:37:01;;;;;;;1.10;1.10;;;16.70;99.90;19.70;101414.00;;;;5073012;28;20218;-71
2023/05/21 20:39:52;;;;;;;4.37;0.47;;;16.70;99.90;20.40;101466.00;;;;5073277;28;20184;-71
2023/05/21 20:42:47;;;;;;;0.47;0.47;;;16.80;99.90;19.40;101463.00;;;;5060792;28;20189;-71
2023/05/21 20:46:12;;;;;;;1.03;1.03;;;16.80;99.90;19.50;101451.00;;;;5073379;28;20673;-70
2023/05/21 20:49:23;;;;;;;0.30;0.30;;;16.70;99.90;20.00;101462.00;;;;5068148;28;20183;-71
2023/05/21 20:52:19;;;;;;;0.43;0.43;;;16.60;99.90;19.80;101453.00;;;;5067496;28;20200;-71
2023/05/21 20:55:05;;;;;;;0.20;0.20;;;16.60;99.90;19.40;101435.00;;;;5068707;28;20239;-71
